createdAt,value
2023-05-18T00:02:31.724Z,100.00
2023-05-18T00:05:20.577Z,100.00
2023-05-18T00:08:10.947Z,100.00
2023-05-18T00:10:59.834Z,100.00
2023-05-18T00:13:48.567Z,100.00
2023-05-18T00:16:37.358Z,100.00
2023-05-18T00:19:26.702Z,100.00
2023-05-18T00:22:18.103Z,100.00
2023-05-18T00:25:08.889Z,100.00
2023-05-18T00:27:57.670Z,100.00
2023-05-18T00:30:46.855Z,100.00
2023-05-18T00:33:35.557Z,100.00
2023-05-18T00:36:24.398Z,100.00
2023-05-18T00:39:14.270Z,100.00
2023-05-18T00:42:04.818Z,100.00
2023-05-18T00:44:53.511Z,100.00
2023-05-18T00:47:42.349Z,100.00
2023-05-18T00:50:31.846Z,100.00
2023-05-18T00:53:20.654Z,100.00
2023-05-18T00:56:11.040Z,100.00
2023-05-18T00:59:03.675Z,100.00
2023-05-18T01:01:52.715Z,100.00
2023-05-18T01:04:43.036Z,100.00
2023-05-18T01:07:33.475Z,100.00
2023-05-18T01:10:22.387Z,100.00
2023-05-18T01:13:24.442Z,100.00
2023-05-18T01:16:26.959Z,100.00
2023-05-18T01:20:12.442Z,100.00
2023-05-18T01:23:41.556Z,100.00
2023-05-18T01:26:37.531Z,100.00
2023-05-18T01:29:30.205Z,100.00
2023-05-18T01:32:20.628Z,100.00
2023-05-18T01:35:10.610Z,100.00
2023-05-18T01:37:59.381Z,100.00
2023-05-18T01:40:59.836Z,100.00
2023-05-18T01:44:01.765Z,100.00
2023-05-18T01:47:00.660Z,100.00
2023-05-18T01:49:58.405Z,100.00
2023-05-18T01:52:55.184Z,100.00
2023-05-18T01:55:46.705Z,100.00
2023-05-18T01:58:37.189Z,100.00
2023-05-18T02:01:27.525Z,100.00
2023-05-18T02:04:16.450Z,100.00
2023-05-18T02:07:06.121Z,100.00
2023-05-18T02:09:55.062Z,100.00
2023-05-18T02:12:44.362Z,100.00
2023-05-18T02:15:33.136Z,100.00
2023-05-18T02:18:23.572Z,100.00
2023-05-18T02:21:13.731Z,100.00
2023-05-18T02:24:02.584Z,100.00
2023-05-18T02:26:51.511Z,100.00
2023-05-18T02:29:41.959Z,100.00
2023-05-18T02:32:32.485Z,100.00
2023-05-18T02:35:22.632Z,100.00
2023-05-18T02:38:11.839Z,100.00
2023-05-18T02:41:00.605Z,100.00
2023-05-18T02:43:49.425Z,100.00
2023-05-18T02:46:38.647Z,100.00
2023-05-18T02:49:28.730Z,100.00
2023-05-18T02:52:18.875Z,100.00
2023-05-18T02:55:08.097Z,100.00
2023-05-18T02:58:17.393Z,100.00
2023-05-18T03:01:17.424Z,100.00
2023-05-18T03:04:10.777Z,100.00
2023-05-18T03:07:07.332Z,100.00
2023-05-18T03:09:57.698Z,100.00
2023-05-18T03:12:46.812Z,100.00
2023-05-18T03:15:40.233Z,100.00
2023-05-18T03:18:29.139Z,100.00
2023-05-18T03:21:17.930Z,100.00
2023-05-18T03:24:08.041Z,100.00
2023-05-18T03:27:02.391Z,100.00
2023-05-18T03:29:53.070Z,100.00
2023-05-18T03:32:42.078Z,100.00
2023-05-18T03:35:31.480Z,100.00
2023-05-18T03:38:20.808Z,100.00
2023-05-18T03:41:16.575Z,100.00
2023-05-18T03:44:06.801Z,100.00
2023-05-18T03:46:55.584Z,100.00
2023-05-18T03:49:44.366Z,100.00
2023-05-18T03:52:34.130Z,100.00
2023-05-18T03:55:23.958Z,100.00
2023-05-18T03:58:12.804Z,100.00
2023-05-18T04:01:03.719Z,100.00
2023-05-18T04:03:56.444Z,100.00
2023-05-18T04:06:49.290Z,100.00
2023-05-18T04:09:38.104Z,100.00
2023-05-18T04:12:27.182Z,100.00
2023-05-18T04:15:16.304Z,100.00
2023-05-18T04:18:08.193Z,100.00
2023-05-18T04:20:57.206Z,100.00
2023-05-18T04:23:47.227Z,100.00
2023-05-18T04:26:38.518Z,100.00
2023-05-18T04:29:28.017Z,100.00
2023-05-18T04:32:18.455Z,100.00
2023-05-18T04:35:10.802Z,100.00
2023-05-18T04:37:59.960Z,100.00
2023-05-18T04:40:50.098Z,100.00
2023-05-18T04:43:39.174Z,100.00
2023-05-18T04:46:28.559Z,100.00
2023-05-18T04:49:17.368Z,100.00
2023-05-18T04:52:10.328Z,100.00
2023-05-18T04:54:59.847Z,100.00
2023-05-18T04:57:48.672Z,100.00
2023-05-18T05:00:37.558Z,100.00
2023-05-18T05:03:27.001Z,100.00
2023-05-18T05:06:18.754Z,100.00
2023-05-18T05:09:09.602Z,100.00
2023-05-18T05:11:58.477Z,100.00
2023-05-18T05:14:47.388Z,100.00
2023-05-18T05:17:36.726Z,100.00
2023-05-18T05:20:29.421Z,100.00
2023-05-18T05:23:18.357Z,100.00
2023-05-18T05:26:09.241Z,100.00
2023-05-18T05:28:57.991Z,100.00
2023-05-18T05:31:47.010Z,100.00
2023-05-18T05:34:35.873Z,100.00
2023-05-18T05:37:24.976Z,100.00
2023-05-18T05:40:14.298Z,100.00
2023-05-18T05:43:07.831Z,100.00
2023-05-18T05:45:56.780Z,100.00
2023-05-18T05:48:46.177Z,100.00
2023-05-18T05:51:35.055Z,100.00
2023-05-18T05:54:24.001Z,100.00
2023-05-18T05:57:12.827Z,100.00
2023-05-18T06:00:04.849Z,100.00
2023-05-18T06:03:09.664Z,100.00
2023-05-18T06:06:02.681Z,100.00
2023-05-18T06:08:51.926Z,100.00
2023-05-18T06:11:40.974Z,100.00
2023-05-18T06:14:29.886Z,100.00
2023-05-18T06:17:21.456Z,100.00
2023-05-18T06:20:11.357Z,100.00
2023-05-18T06:23:01.009Z,100.00
2023-05-18T06:26:07.652Z,100.00
2023-05-18T06:28:59.255Z,100.00
2023-05-18T06:32:02.515Z,100.00
2023-05-18T06:34:59.120Z,100.00
2023-05-18T06:37:48.915Z,100.00
2023-05-18T06:40:37.801Z,100.00
2023-05-18T06:43:28.320Z,100.00
2023-05-18T06:46:26.637Z,100.00
2023-05-18T06:49:19.594Z,100.00
2023-05-18T06:52:10.116Z,100.00
2023-05-18T06:55:01.217Z,100.00
2023-05-18T06:57:51.355Z,100.00
2023-05-18T07:00:40.163Z,100.00
2023-05-18T07:03:29.962Z,100.00
2023-05-18T07:06:18.957Z,100.00
2023-05-18T07:09:09.089Z,100.00
2023-05-18T07:11:57.817Z,100.00
2023-05-18T07:14:46.595Z,100.00
2023-05-18T07:17:35.450Z,100.00
2023-05-18T07:20:26.431Z,100.00
2023-05-18T07:23:15.851Z,100.00
2023-05-18T07:26:10.003Z,100.00
2023-05-18T07:28:58.842Z,100.00
2023-05-18T07:31:47.745Z,100.00
2023-05-18T07:34:36.530Z,100.00
2023-05-18T07:37:25.974Z,100.00
2023-05-18T07:40:14.889Z,100.00
2023-05-18T07:43:05.091Z,100.00
2023-05-18T07:45:53.862Z,100.00
2023-05-18T07:48:42.584Z,100.00
2023-05-18T07:51:31.652Z,100.00
2023-05-18T07:54:20.731Z,100.00
2023-05-18T07:57:09.599Z,100.00
2023-05-18T07:59:59.745Z,100.00
2023-05-18T08:02:49.821Z,100.00
2023-05-18T08:05:38.683Z,100.00
2023-05-18T08:08:27.461Z,100.00
2023-05-18T08:11:16.245Z,100.00
2023-05-18T08:14:05.392Z,100.00
2023-05-18T08:16:55.592Z,100.00
2023-05-18T08:19:44.762Z,100.00
2023-05-18T08:22:33.514Z,100.00
2023-05-18T08:25:22.509Z,100.00
2023-05-18T08:28:12.322Z,100.00
2023-05-18T08:31:01.170Z,100.00
2023-05-18T08:33:51.349Z,100.00
2023-05-18T08:36:41.019Z,100.00
2023-05-18T08:39:32.025Z,97.57
2023-05-18T08:42:29.565Z,100.00
2023-05-18T08:45:36.422Z,100.00
2023-05-18T08:48:28.422Z,99.73
2023-05-18T08:51:22.504Z,98.50
2023-05-18T08:54:16.184Z,100.00
2023-05-18T08:57:09.419Z,98.17
2023-05-18T09:00:01.730Z,100.00
2023-05-18T09:02:51.487Z,98.84
2023-05-18T09:05:42.429Z,100.00
2023-05-18T09:08:33.175Z,100.00
2023-05-18T09:11:25.400Z,98.05
2023-05-18T09:14:14.428Z,100.00
2023-05-18T09:17:03.408Z,98.23
2023-05-18T09:19:52.320Z,99.31
2023-05-18T09:22:41.976Z,95.83
2023-05-18T09:25:35.728Z,100.00
2023-05-18T09:28:28.826Z,100.00
2023-05-18T09:31:20.967Z,100.00
2023-05-18T09:34:09.800Z,100.00
2023-05-18T09:36:58.761Z,93.03
2023-05-18T09:39:59.964Z,93.38
2023-05-18T09:42:50.153Z,93.77
2023-05-18T09:45:44.586Z,91.67
2023-05-18T09:48:33.406Z,97.60
2023-05-18T09:51:25.648Z,100.00
2023-05-18T09:54:14.761Z,95.70
2023-05-18T09:57:10.967Z,92.41
2023-05-18T10:00:10.703Z,95.75
2023-05-18T10:03:01.124Z,95.76
2023-05-18T10:05:50.253Z,97.40
2023-05-18T10:08:39.436Z,91.15
2023-05-18T10:11:33.855Z,93.44
2023-05-18T10:14:28.581Z,84.71
2023-05-18T10:17:21.021Z,83.70
2023-05-18T10:20:11.914Z,85.71
2023-05-18T10:23:06.355Z,90.01
2023-05-18T10:25:55.890Z,96.22
2023-05-18T10:28:48.687Z,100.00
2023-05-18T10:31:40.543Z,100.00
2023-05-18T10:34:31.262Z,100.00
2023-05-18T10:37:23.855Z,100.00
2023-05-18T10:40:15.074Z,100.00
2023-05-18T10:43:05.311Z,100.00
2023-05-18T10:45:57.095Z,100.00
2023-05-18T10:48:52.422Z,100.00
2023-05-18T10:51:44.656Z,100.00
2023-05-18T10:54:34.105Z,100.00
2023-05-18T10:57:23.600Z,100.00
2023-05-18T11:00:13.538Z,99.92
2023-05-18T11:03:04.043Z,100.00
2023-05-18T11:06:08.064Z,100.00
2023-05-18T11:08:59.435Z,100.00
2023-05-18T11:11:57.503Z,100.00
2023-05-18T11:14:52.441Z,100.00
2023-05-18T11:17:41.180Z,100.00
2023-05-18T11:20:30.079Z,100.00
2023-05-18T11:23:21.048Z,100.00
2023-05-18T11:26:17.579Z,100.00
2023-05-18T11:29:21.826Z,100.00
2023-05-18T11:32:30.207Z,100.00
2023-05-18T11:35:25.115Z,100.00
2023-05-18T11:38:14.321Z,100.00
2023-05-18T11:41:03.241Z,100.00
2023-05-18T11:44:22.403Z,100.00
2023-05-18T11:47:12.879Z,100.00
2023-05-18T11:50:02.274Z,100.00
2023-05-18T11:52:54.276Z,100.00
2023-05-18T11:55:43.215Z,100.00
2023-05-18T11:58:32.469Z,100.00
2023-05-18T12:01:24.457Z,100.00
2023-05-18T12:04:13.553Z,98.31
2023-05-18T12:07:07.909Z,100.00
2023-05-18T12:10:00.580Z,100.00
2023-05-18T12:12:52.697Z,94.44
2023-05-18T12:15:42.321Z,92.80
2023-05-18T12:18:36.241Z,95.84
2023-05-18T12:21:25.778Z,91.07
2023-05-18T12:24:14.465Z,81.02
2023-05-18T12:27:07.337Z,88.03
2023-05-18T12:29:56.329Z,86.49
2023-05-18T12:32:47.460Z,82.67
2023-05-18T12:35:37.637Z,90.35
2023-05-18T12:38:27.836Z,90.40
2023-05-18T12:41:24.516Z,92.98
2023-05-18T12:44:13.288Z,89.61
2023-05-18T12:47:02.701Z,87.68
2023-05-18T12:49:51.540Z,82.62
2023-05-18T12:52:41.970Z,75.92
2023-05-18T12:55:33.501Z,82.91
2023-05-18T12:58:22.593Z,79.23
2023-05-18T13:01:12.545Z,80.33
2023-05-18T13:04:01.393Z,68.02
2023-05-18T13:06:50.743Z,75.81
2023-05-18T13:09:48.187Z,68.21
2023-05-18T13:12:44.207Z,74.96
2023-05-18T13:15:39.277Z,74.38
2023-05-18T13:18:29.120Z,80.16
2023-05-18T13:21:17.800Z,83.60
2023-05-18T13:24:07.312Z,82.44
2023-05-18T13:26:57.372Z,80.28
2023-05-18T13:29:46.192Z,81.48
2023-05-18T13:32:35.505Z,80.27
2023-05-18T13:35:24.536Z,76.79
2023-05-18T13:38:15.855Z,68.25
2023-05-18T13:41:05.458Z,76.19
2023-05-18T13:43:55.588Z,79.61
2023-05-18T13:46:44.576Z,77.49
2023-05-18T13:49:33.356Z,79.21
2023-05-18T13:52:22.284Z,75.73
2023-05-18T13:55:12.482Z,80.54
2023-05-18T13:58:01.277Z,73.41
2023-05-18T14:00:53.848Z,76.57
2023-05-18T14:03:42.676Z,75.86
2023-05-18T14:06:31.757Z,71.22
2023-05-18T14:09:21.338Z,81.09
2023-05-18T14:12:12.895Z,69.14
2023-05-18T14:15:01.750Z,73.25
2023-05-18T14:17:51.806Z,68.23
2023-05-18T14:20:40.532Z,74.28
2023-05-18T14:23:29.399Z,75.81
2023-05-18T14:26:18.138Z,69.66
2023-05-18T14:29:06.840Z,69.22
2023-05-18T14:31:55.764Z,68.42
2023-05-18T14:34:46.058Z,71.79
2023-05-18T14:37:34.730Z,70.60
2023-05-18T14:40:23.602Z,73.27
2023-05-18T14:43:12.510Z,74.53
2023-05-18T14:46:08.704Z,78.89
2023-05-18T14:48:57.902Z,83.74
2023-05-18T14:51:47.926Z,71.11
2023-05-18T14:54:36.644Z,74.82
2023-05-18T14:57:26.756Z,70.94
2023-05-18T15:00:16.770Z,70.64
2023-05-18T15:03:05.676Z,74.95
2023-05-18T15:05:54.461Z,72.35
2023-05-18T15:08:45.218Z,71.64
2023-05-18T15:11:34.062Z,70.83
2023-05-18T15:14:22.721Z,74.56
2023-05-18T15:17:12.465Z,76.63
2023-05-18T15:20:01.625Z,81.72
2023-05-18T15:22:50.789Z,84.09
2023-05-18T15:25:41.846Z,82.52
2023-05-18T15:28:30.894Z,85.65
2023-05-18T15:31:19.605Z,97.34
2023-05-18T15:34:08.369Z,92.17
2023-05-18T15:36:57.083Z,93.49
2023-05-18T15:39:45.978Z,89.29
2023-05-18T15:42:36.110Z,88.82
2023-05-18T15:45:24.740Z,86.70
2023-05-18T15:48:13.403Z,94.61
2023-05-18T15:51:02.182Z,90.46
2023-05-18T15:53:50.864Z,90.31
2023-05-18T15:56:39.608Z,87.01
2023-05-18T15:59:30.016Z,83.11
2023-05-18T16:02:18.905Z,87.69
2023-05-18T16:05:08.711Z,86.61
2023-05-18T16:07:57.659Z,96.23
2023-05-18T16:10:46.318Z,97.97
2023-05-18T16:13:35.013Z,96.57
2023-05-18T16:16:25.427Z,87.07
2023-05-18T16:19:18.077Z,88.70
2023-05-18T16:22:08.919Z,91.95
2023-05-18T16:24:58.965Z,86.77
2023-05-18T16:27:47.756Z,89.99
2023-05-18T16:30:36.393Z,93.90
2023-05-18T16:33:27.915Z,90.66
2023-05-18T16:36:16.934Z,90.05
2023-05-18T16:39:07.758Z,87.45
2023-05-18T16:41:56.436Z,91.03
2023-05-18T16:44:45.077Z,91.07
2023-05-18T16:47:33.861Z,90.66
2023-05-18T16:50:24.030Z,90.96
2023-05-18T16:53:12.711Z,92.75
2023-05-18T16:56:01.464Z,97.11
2023-05-18T16:58:52.295Z,88.61
2023-05-18T17:01:41.033Z,93.75
2023-05-18T17:04:30.052Z,91.59
2023-05-18T17:07:20.219Z,94.00
2023-05-18T17:10:10.510Z,94.81
2023-05-18T17:12:59.851Z,97.43
2023-05-18T17:15:49.063Z,96.79
2023-05-18T17:18:37.862Z,97.01
2023-05-18T17:21:28.378Z,100.00
2023-05-18T17:24:18.828Z,97.91
2023-05-18T17:27:07.982Z,100.00
2023-05-18T17:29:56.948Z,100.00
2023-05-18T17:32:50.320Z,100.00
2023-05-18T17:35:39.214Z,98.72
2023-05-18T17:38:27.909Z,98.72
2023-05-18T17:41:19.695Z,100.00
2023-05-18T17:44:08.447Z,100.00
2023-05-18T17:46:58.646Z,100.00
2023-05-18T17:49:47.398Z,100.00
2023-05-18T17:52:36.286Z,100.00
2023-05-18T17:55:27.788Z,100.00
2023-05-18T17:58:17.946Z,100.00
2023-05-18T18:01:08.574Z,100.00
2023-05-18T18:03:58.166Z,100.00
2023-05-18T18:06:47.633Z,100.00
2023-05-18T18:09:37.826Z,100.00
2023-05-18T18:12:26.658Z,100.00
2023-05-18T18:15:17.272Z,100.00
2023-05-18T18:18:06.517Z,100.00
2023-05-18T18:20:55.320Z,100.00
2023-05-18T18:23:44.247Z,100.00
2023-05-18T18:26:33.306Z,100.00
2023-05-18T18:29:22.108Z,100.00
2023-05-18T18:32:12.441Z,100.00
2023-05-18T18:35:01.689Z,100.00
2023-05-18T18:37:50.540Z,100.00
2023-05-18T18:40:39.821Z,100.00
2023-05-18T18:43:29.275Z,100.00
2023-05-18T18:46:18.327Z,100.00
2023-05-18T18:49:08.542Z,100.00
2023-05-18T18:51:58.797Z,100.00
2023-05-18T18:54:47.847Z,100.00
2023-05-18T18:57:36.716Z,100.00
2023-05-18T19:00:25.619Z,100.00
2023-05-18T19:03:15.101Z,100.00
2023-05-18T19:06:05.672Z,100.00
2023-05-18T19:08:54.542Z,100.00
2023-05-18T19:11:43.440Z,100.00
2023-05-18T19:14:32.265Z,100.00
2023-05-18T19:17:21.454Z,100.00
2023-05-18T19:20:11.321Z,100.00
2023-05-18T19:23:01.512Z,100.00
2023-05-18T19:25:50.367Z,100.00
2023-05-18T19:28:39.180Z,100.00
2023-05-18T19:31:31.546Z,100.00
2023-05-18T19:34:20.520Z,100.00
2023-05-18T19:37:09.350Z,100.00
2023-05-18T19:39:59.652Z,100.00
2023-05-18T19:42:48.493Z,100.00
2023-05-18T19:45:37.451Z,100.00
2023-05-18T19:48:26.523Z,100.00
2023-05-18T19:51:15.370Z,100.00
2023-05-18T19:54:04.594Z,100.00
2023-05-18T19:56:55.725Z,100.00
2023-05-18T19:59:44.862Z,100.00
2023-05-18T20:02:33.767Z,100.00
2023-05-18T20:05:24.356Z,100.00
2023-05-18T20:08:13.397Z,100.00
2023-05-18T20:11:02.294Z,100.00
2023-05-18T20:13:52.852Z,100.00
2023-05-18T20:16:41.742Z,100.00
2023-05-18T20:19:31.399Z,100.00
2023-05-18T20:22:20.606Z,100.00
2023-05-18T20:25:11.986Z,100.00
2023-05-18T20:28:01.324Z,100.00
2023-05-18T20:30:51.637Z,100.00
2023-05-18T20:33:42.640Z,100.00
2023-05-18T20:36:32.500Z,100.00
2023-05-18T20:39:21.386Z,100.00
2023-05-18T20:42:12.731Z,100.00
2023-05-18T20:45:01.650Z,100.00
2023-05-18T20:47:52.495Z,100.00
2023-05-18T20:50:41.277Z,100.00
2023-05-18T20:53:30.258Z,100.00
2023-05-18T20:56:19.279Z,100.00
2023-05-18T20:59:09.900Z,100.00
2023-05-18T21:01:58.905Z,100.00
2023-05-18T21:04:49.550Z,100.00
2023-05-18T21:07:39.938Z,100.00
2023-05-18T21:10:28.951Z,100.00
2023-05-18T21:13:17.704Z,100.00
2023-05-18T21:16:08.608Z,100.00
2023-05-18T21:18:58.173Z,100.00
2023-05-18T21:21:48.662Z,100.00
2023-05-18T21:24:37.558Z,100.00
2023-05-18T21:27:26.393Z,100.00
2023-05-18T21:30:16.598Z,100.00
2023-05-18T21:33:05.570Z,100.00
2023-05-18T21:35:54.567Z,100.00
2023-05-18T21:38:44.728Z,100.00
2023-05-18T21:41:35.295Z,100.00
2023-05-18T21:44:24.171Z,100.00
2023-05-18T21:47:12.940Z,100.00
2023-05-18T21:50:01.646Z,100.00
2023-05-18T21:52:50.813Z,100.00
2023-05-18T21:55:41.104Z,100.00
2023-05-18T21:58:29.898Z,100.00
2023-05-18T22:01:21.267Z,100.00
2023-05-18T22:04:10.493Z,100.00
2023-05-18T22:07:00.678Z,100.00
2023-05-18T22:09:51.538Z,100.00
2023-05-18T22:12:43.598Z,100.00
2023-05-18T22:15:32.878Z,100.00
2023-05-18T22:18:23.642Z,100.00
2023-05-18T22:21:12.490Z,100.00
2023-05-18T22:24:01.243Z,100.00
2023-05-18T22:26:50.027Z,100.00
2023-05-18T22:29:40.163Z,100.00
2023-05-18T22:32:28.982Z,100.00
2023-05-18T22:35:18.029Z,100.00
2023-05-18T22:38:06.851Z,100.00
2023-05-18T22:40:55.660Z,100.00
2023-05-18T22:43:44.667Z,100.00
2023-05-18T22:46:34.833Z,100.00
2023-05-18T22:49:23.642Z,100.00
2023-05-18T22:52:12.415Z,100.00
2023-05-18T22:55:01.452Z,100.00
2023-05-18T22:57:50.544Z,100.00
2023-05-18T23:00:39.293Z,100.00
2023-05-18T23:03:29.385Z,100.00
2023-05-18T23:06:22.071Z,100.00
2023-05-18T23:09:10.851Z,100.00
2023-05-18T23:12:01.186Z,100.00
2023-05-18T23:14:54.768Z,100.00
2023-05-18T23:17:43.855Z,100.00
2023-05-18T23:20:34.540Z,100.00
2023-05-18T23:23:24.050Z,100.00
2023-05-18T23:26:12.816Z,100.00
2023-05-18T23:29:01.613Z,100.00
2023-05-18T23:31:50.418Z,100.00
2023-05-18T23:34:39.984Z,100.00
2023-05-18T23:37:33.152Z,100.00
2023-05-18T23:40:23.503Z,100.00
2023-05-18T23:43:12.874Z,100.00
2023-05-18T23:46:02.412Z,100.00
2023-05-18T23:48:52.843Z,100.00
2023-05-18T23:51:44.233Z,100.00
2023-05-18T23:54:39.045Z,100.00
2023-05-18T23:57:28.564Z,100.00
